sensor_id;sensor_type;location;lat;lon;timestamp;P1;durP1;ratioP1;P2;durP2;ratioP2
21878;SDS011;27908;42.708;23.278;2023-04-25T00:00:47;7.60;;;3.33;;
21878;SDS011;27908;42.708;23.278;2023-04-25T00:03:12;8.70;;;3.90;;
21878;SDS011;27908;42.708;23.278;2023-04-25T00:05:38;6.90;;;3.03;;
21878;SDS011;27908;42.708;23.278;2023-04-25T00:08:04;9.97;;;3.50;;
21878;SDS011;27908;42.708;23.278;2023-04-25T00:10:30;9.37;;;3.10;;
21878;SDS011;27908;42.708;23.278;2023-04-25T00:12:56;11.70;;;3.80;;
21878;SDS011;27908;42.708;23.278;2023-04-25T00:15:22;7.80;;;3.55;;
21878;SDS011;27908;42.708;23.278;2023-04-25T00:17:49;8.70;;;3.63;;
21878;SDS011;27908;42.708;23.278;2023-04-25T00:20:14;10.43;;;3.60;;
21878;SDS011;27908;42.708;23.278;2023-04-25T00:22:40;9.60;;;3.60;;
21878;SDS011;27908;42.708;23.278;2023-04-25T00:25:06;7.90;;;3.28;;
21878;SDS011;27908;42.708;23.278;2023-04-25T00:27:31;8.73;;;3.67;;
21878;SDS011;27908;42.708;23.278;2023-04-25T00:29:57;8.55;;;3.58;;
21878;SDS011;27908;42.708;23.278;2023-04-25T00:32:23;8.35;;;3.90;;
21878;SDS011;27908;42.708;23.278;2023-04-25T00:34:48;10.23;;;4.07;;
21878;SDS011;27908;42.708;23.278;2023-04-25T00:37:14;11.33;;;4.30;;
21878;SDS011;27908;42.708;23.278;2023-04-25T00:39:39;9.80;;;4.37;;
21878;SDS011;27908;42.708;23.278;2023-04-25T00:42:05;9.25;;;4.10;;
21878;SDS011;27908;42.708;23.278;2023-04-25T00:44:31;9.97;;;3.83;;
21878;SDS011;27908;42.708;23.278;2023-04-25T00:46:57;8.75;;;4.28;;
21878;SDS011;27908;42.708;23.278;2023-04-25T00:49:23;9.63;;;4.37;;
21878;SDS011;27908;42.708;23.278;2023-04-25T00:51:48;9.27;;;3.80;;
21878;SDS011;27908;42.708;23.278;2023-04-25T00:54:14;11.53;;;4.00;;
21878;SDS011;27908;42.708;23.278;2023-04-25T00:56:40;9.05;;;3.97;;
21878;SDS011;27908;42.708;23.278;2023-04-25T00:59:06;10.20;;;4.43;;
21878;SDS011;27908;42.708;23.278;2023-04-25T01:01:33;9.27;;;4.82;;
21878;SDS011;27908;42.708;23.278;2023-04-25T01:03:59;12.57;;;4.60;;
21878;SDS011;27908;42.708;23.278;2023-04-25T01:06:25;10.30;;;4.38;;
21878;SDS011;27908;42.708;23.278;2023-04-25T01:08:52;12.60;;;4.85;;
21878;SDS011;27908;42.708;23.278;2023-04-25T01:11:18;12.65;;;4.30;;
21878;SDS011;27908;42.708;23.278;2023-04-25T01:13:44;11.17;;;4.57;;
21878;SDS011;27908;42.708;23.278;2023-04-25T01:16:09;10.37;;;4.70;;
21878;SDS011;27908;42.708;23.278;2023-04-25T01:18:35;9.00;;;4.70;;
21878;SDS011;27908;42.708;23.278;2023-04-25T01:21:06;10.35;;;4.10;;
21878;SDS011;27908;42.708;23.278;2023-04-25T01:23:33;10.25;;;4.10;;
21878;SDS011;27908;42.708;23.278;2023-04-25T01:25:59;9.90;;;4.40;;
21878;SDS011;27908;42.708;23.278;2023-04-25T01:28:26;11.03;;;4.60;;
21878;SDS011;27908;42.708;23.278;2023-04-25T01:30:52;10.60;;;4.90;;
21878;SDS011;27908;42.708;23.278;2023-04-25T01:33:18;12.25;;;5.38;;
21878;SDS011;27908;42.708;23.278;2023-04-25T01:35:45;11.15;;;4.88;;
21878;SDS011;27908;42.708;23.278;2023-04-25T01:38:12;11.80;;;5.43;;
21878;SDS011;27908;42.708;23.278;2023-04-25T01:40:38;12.10;;;5.40;;
21878;SDS011;27908;42.708;23.278;2023-04-25T01:43:06;12.45;;;5.05;;
21878;SDS011;27908;42.708;23.278;2023-04-25T01:45:33;11.18;;;4.85;;
21878;SDS011;27908;42.708;23.278;2023-04-25T01:47:59;11.47;;;5.03;;
21878;SDS011;27908;42.708;23.278;2023-04-25T01:50:24;14.52;;;6.35;;
21878;SDS011;27908;42.708;23.278;2023-04-25T01:52:50;12.93;;;5.83;;
21878;SDS011;27908;42.708;23.278;2023-04-25T01:55:15;12.55;;;5.38;;
21878;SDS011;27908;42.708;23.278;2023-04-25T01:57:41;12.13;;;5.27;;
21878;SDS011;27908;42.708;23.278;2023-04-25T02:00:07;11.13;;;5.43;;
21878;SDS011;27908;42.708;23.278;2023-04-25T02:02:34;12.27;;;5.70;;
21878;SDS011;27908;42.708;23.278;2023-04-25T02:05:00;12.45;;;5.43;;
21878;SDS011;27908;42.708;23.278;2023-04-25T02:07:26;12.33;;;5.67;;
21878;SDS011;27908;42.708;23.278;2023-04-25T02:09:56;12.88;;;5.63;;
21878;SDS011;27908;42.708;23.278;2023-04-25T02:12:22;11.20;;;4.93;;
21878;SDS011;27908;42.708;23.278;2023-04-25T02:14:51;11.95;;;5.60;;
21878;SDS011;27908;42.708;23.278;2023-04-25T02:17:16;11.07;;;5.20;;
21878;SDS011;27908;42.708;23.278;2023-04-25T02:19:42;11.63;;;5.27;;
21878;SDS011;27908;42.708;23.278;2023-04-25T02:22:08;12.23;;;5.65;;
21878;SDS011;27908;42.708;23.278;2023-04-25T02:24:33;13.13;;;6.03;;
21878;SDS011;27908;42.708;23.278;2023-04-25T02:26:59;12.70;;;5.88;;
21878;SDS011;27908;42.708;23.278;2023-04-25T02:29:25;11.00;;;5.60;;
21878;SDS011;27908;42.708;23.278;2023-04-25T02:31:51;12.32;;;5.68;;
21878;SDS011;27908;42.708;23.278;2023-04-25T02:34:16;13.10;;;5.53;;
21878;SDS011;27908;42.708;23.278;2023-04-25T02:36:42;12.53;;;5.33;;
21878;SDS011;27908;42.708;23.278;2023-04-25T02:39:07;11.90;;;5.03;;
21878;SDS011;27908;42.708;23.278;2023-04-25T02:41:32;12.18;;;6.03;;
21878;SDS011;27908;42.708;23.278;2023-04-25T02:43:58;12.40;;;5.53;;
21878;SDS011;27908;42.708;23.278;2023-04-25T02:46:23;16.30;;;7.17;;
21878;SDS011;27908;42.708;23.278;2023-04-25T02:48:49;14.57;;;7.07;;
21878;SDS011;27908;42.708;23.278;2023-04-25T02:51:14;15.80;;;5.93;;
21878;SDS011;27908;42.708;23.278;2023-04-25T02:53:41;15.65;;;6.30;;
21878;SDS011;27908;42.708;23.278;2023-04-25T02:56:06;12.80;;;5.70;;
21878;SDS011;27908;42.708;23.278;2023-04-25T02:58:32;17.90;;;5.60;;
21878;SDS011;27908;42.708;23.278;2023-04-25T03:00:57;14.27;;;6.20;;
21878;SDS011;27908;42.708;23.278;2023-04-25T03:03:23;13.63;;;5.83;;
21878;SDS011;27908;42.708;23.278;2023-04-25T03:05:49;14.87;;;6.07;;
21878;SDS011;27908;42.708;23.278;2023-04-25T03:08:15;14.13;;;6.30;;
21878;SDS011;27908;42.708;23.278;2023-04-25T03:10:41;14.20;;;6.17;;
21878;SDS011;27908;42.708;23.278;2023-04-25T03:13:07;14.73;;;6.22;;
21878;SDS011;27908;42.708;23.278;2023-04-25T03:15:32;15.47;;;6.20;;
21878;SDS011;27908;42.708;23.278;2023-04-25T03:17:58;14.27;;;6.47;;
21878;SDS011;27908;42.708;23.278;2023-04-25T03:20:23;16.60;;;6.57;;
21878;SDS011;27908;42.708;23.278;2023-04-25T03:22:48;17.65;;;6.60;;
21878;SDS011;27908;42.708;23.278;2023-04-25T03:25:14;16.47;;;7.03;;
21878;SDS011;27908;42.708;23.278;2023-04-25T03:27:39;14.17;;;6.60;;
21878;SDS011;27908;42.708;23.278;2023-04-25T03:30:05;16.60;;;7.23;;
21878;SDS011;27908;42.708;23.278;2023-04-25T03:32:31;18.83;;;7.70;;
21878;SDS011;27908;42.708;23.278;2023-04-25T03:34:57;16.45;;;7.43;;
21878;SDS011;27908;42.708;23.278;2023-04-25T03:37:25;15.93;;;7.20;;
21878;SDS011;27908;42.708;23.278;2023-04-25T03:39:50;15.68;;;6.72;;
21878;SDS011;27908;42.708;23.278;2023-04-25T03:42:16;14.30;;;6.77;;
21878;SDS011;27908;42.708;23.278;2023-04-25T03:44:41;17.77;;;8.23;;
21878;SDS011;27908;42.708;23.278;2023-04-25T03:47:07;15.82;;;6.45;;
21878;SDS011;27908;42.708;23.278;2023-04-25T03:49:32;17.50;;;7.13;;
21878;SDS011;27908;42.708;23.278;2023-04-25T03:51:58;17.27;;;8.20;;
21878;SDS011;27908;42.708;23.278;2023-04-25T03:54:25;19.23;;;7.97;;
21878;SDS011;27908;42.708;23.278;2023-04-25T03:56:50;17.95;;;8.05;;
21878;SDS011;27908;42.708;23.278;2023-04-25T03:59:16;19.07;;;9.53;;
21878;SDS011;27908;42.708;23.278;2023-04-25T04:01:41;21.20;;;8.80;;
21878;SDS011;27908;42.708;23.278;2023-04-25T04:04:06;19.80;;;9.40;;
21878;SDS011;27908;42.708;23.278;2023-04-25T04:06:32;17.93;;;8.30;;
21878;SDS011;27908;42.708;23.278;2023-04-25T04:08:58;18.75;;;8.98;;
21878;SDS011;27908;42.708;23.278;2023-04-25T04:11:23;21.17;;;8.83;;
21878;SDS011;27908;42.708;23.278;2023-04-25T04:13:49;18.42;;;8.65;;
21878;SDS011;27908;42.708;23.278;2023-04-25T04:16:14;21.57;;;10.77;;
21878;SDS011;27908;42.708;23.278;2023-04-25T04:18:40;18.17;;;9.37;;
21878;SDS011;27908;42.708;23.278;2023-04-25T04:21:05;17.77;;;8.40;;
21878;SDS011;27908;42.708;23.278;2023-04-25T04:23:30;19.30;;;9.20;;
21878;SDS011;27908;42.708;23.278;2023-04-25T04:25:56;18.83;;;8.67;;
21878;SDS011;27908;42.708;23.278;2023-04-25T04:28:22;19.67;;;8.83;;
21878;SDS011;27908;42.708;23.278;2023-04-25T04:30:51;18.63;;;9.07;;
21878;SDS011;27908;42.708;23.278;2023-04-25T04:33:17;21.20;;;9.25;;
21878;SDS011;27908;42.708;23.278;2023-04-25T04:35:46;20.65;;;9.25;;
21878;SDS011;27908;42.708;23.278;2023-04-25T04:38:12;15.97;;;8.10;;
21878;SDS011;27908;42.708;23.278;2023-04-25T04:40:40;17.13;;;8.98;;
21878;SDS011;27908;42.708;23.278;2023-04-25T04:43:08;16.13;;;8.00;;
21878;SDS011;27908;42.708;23.278;2023-04-25T04:45:35;14.73;;;7.30;;
21878;SDS011;27908;42.708;23.278;2023-04-25T04:48:04;17.35;;;8.80;;
21878;SDS011;27908;42.708;23.278;2023-04-25T04:50:30;15.00;;;7.53;;
21878;SDS011;27908;42.708;23.278;2023-04-25T04:52:57;14.68;;;7.18;;
21878;SDS011;27908;42.708;23.278;2023-04-25T04:55:23;15.02;;;8.00;;
21878;SDS011;27908;42.708;23.278;2023-04-25T04:57:48;15.70;;;7.53;;
21878;SDS011;27908;42.708;23.278;2023-04-25T05:00:14;16.90;;;8.43;;
21878;SDS011;27908;42.708;23.278;2023-04-25T05:02:40;14.57;;;7.65;;
21878;SDS011;27908;42.708;23.278;2023-04-25T05:05:06;16.57;;;8.53;;
21878;SDS011;27908;42.708;23.278;2023-04-25T05:07:32;18.55;;;8.45;;
21878;SDS011;27908;42.708;23.278;2023-04-25T05:09:58;17.15;;;8.85;;
21878;SDS011;27908;42.708;23.278;2023-04-25T05:12:24;16.20;;;8.00;;
21878;SDS011;27908;42.708;23.278;2023-04-25T05:14:49;16.53;;;8.67;;
21878;SDS011;27908;42.708;23.278;2023-04-25T05:17:15;15.32;;;7.75;;
21878;SDS011;27908;42.708;23.278;2023-04-25T05:19:40;13.03;;;6.43;;
21878;SDS011;27908;42.708;23.278;2023-04-25T05:22:06;17.50;;;8.30;;
21878;SDS011;27908;42.708;23.278;2023-04-25T05:24:31;16.65;;;7.30;;
21878;SDS011;27908;42.708;23.278;2023-04-25T05:26:57;14.73;;;7.27;;
21878;SDS011;27908;42.708;23.278;2023-04-25T05:29:22;12.90;;;6.47;;
21878;SDS011;27908;42.708;23.278;2023-04-25T05:31:47;13.17;;;6.57;;
21878;SDS011;27908;42.708;23.278;2023-04-25T05:34:13;13.30;;;6.57;;
21878;SDS011;27908;42.708;23.278;2023-04-25T05:36:39;12.20;;;6.00;;
21878;SDS011;27908;42.708;23.278;2023-04-25T05:39:04;13.33;;;6.50;;
21878;SDS011;27908;42.708;23.278;2023-04-25T05:41:31;13.82;;;6.20;;
21878;SDS011;27908;42.708;23.278;2023-04-25T05:43:56;12.37;;;5.70;;
21878;SDS011;27908;42.708;23.278;2023-04-25T05:46:21;13.20;;;5.65;;
21878;SDS011;27908;42.708;23.278;2023-04-25T05:48:47;11.60;;;6.13;;
21878;SDS011;27908;42.708;23.278;2023-04-25T05:51:12;12.80;;;5.83;;
21878;SDS011;27908;42.708;23.278;2023-04-25T05:53:38;10.97;;;5.97;;
21878;SDS011;27908;42.708;23.278;2023-04-25T05:56:03;13.27;;;6.47;;
21878;SDS011;27908;42.708;23.278;2023-04-25T05:58:29;11.37;;;6.20;;
21878;SDS011;27908;42.708;23.278;2023-04-25T06:00:55;13.65;;;6.18;;
21878;SDS011;27908;42.708;23.278;2023-04-25T06:03:20;12.97;;;6.50;;
21878;SDS011;27908;42.708;23.278;2023-04-25T06:05:46;12.87;;;6.33;;
21878;SDS011;27908;42.708;23.278;2023-04-25T06:08:11;15.50;;;7.07;;
21878;SDS011;27908;42.708;23.278;2023-04-25T06:10:36;13.53;;;7.10;;
21878;SDS011;27908;42.708;23.278;2023-04-25T06:13:02;15.87;;;8.00;;
21878;SDS011;27908;42.708;23.278;2023-04-25T06:15:28;16.27;;;8.10;;
21878;SDS011;27908;42.708;23.278;2023-04-25T06:17:54;16.80;;;8.50;;
21878;SDS011;27908;42.708;23.278;2023-04-25T06:20:20;15.52;;;8.15;;
21878;SDS011;27908;42.708;23.278;2023-04-25T06:22:48;15.77;;;8.30;;
21878;SDS011;27908;42.708;23.278;2023-04-25T06:25:14;16.55;;;8.02;;
21878;SDS011;27908;42.708;23.278;2023-04-25T06:27:40;16.13;;;8.52;;
21878;SDS011;27908;42.708;23.278;2023-04-25T06:30:05;18.13;;;9.53;;
21878;SDS011;27908;42.708;23.278;2023-04-25T06:32:31;19.48;;;10.13;;
21878;SDS011;27908;42.708;23.278;2023-04-25T06:34:57;17.93;;;9.83;;
21878;SDS011;27908;42.708;23.278;2023-04-25T06:37:23;17.30;;;8.73;;
21878;SDS011;27908;42.708;23.278;2023-04-25T06:39:48;17.97;;;9.47;;
21878;SDS011;27908;42.708;23.278;2023-04-25T06:42:13;18.27;;;9.57;;
21878;SDS011;27908;42.708;23.278;2023-04-25T06:44:39;19.97;;;9.90;;
21878;SDS011;27908;42.708;23.278;2023-04-25T06:47:04;17.93;;;10.50;;
21878;SDS011;27908;42.708;23.278;2023-04-25T06:49:30;19.70;;;10.90;;
21878;SDS011;27908;42.708;23.278;2023-04-25T06:51:55;22.00;;;10.17;;
21878;SDS011;27908;42.708;23.278;2023-04-25T06:54:20;15.60;;;8.43;;
21878;SDS011;27908;42.708;23.278;2023-04-25T06:56:46;15.10;;;8.97;;
21878;SDS011;27908;42.708;23.278;2023-04-25T06:59:11;16.00;;;8.30;;
21878;SDS011;27908;42.708;23.278;2023-04-25T07:01:37;17.83;;;8.60;;
21878;SDS011;27908;42.708;23.278;2023-04-25T07:04:03;15.57;;;8.13;;
21878;SDS011;27908;42.708;23.278;2023-04-25T07:06:28;15.98;;;7.90;;
21878;SDS011;27908;42.708;23.278;2023-04-25T07:08:53;17.83;;;8.23;;
21878;SDS011;27908;42.708;23.278;2023-04-25T07:11:20;15.90;;;8.30;;
21878;SDS011;27908;42.708;23.278;2023-04-25T07:13:46;15.40;;;8.10;;
21878;SDS011;27908;42.708;23.278;2023-04-25T07:16:11;17.13;;;7.33;;
21878;SDS011;27908;42.708;23.278;2023-04-25T07:18:36;17.30;;;8.20;;
21878;SDS011;27908;42.708;23.278;2023-04-25T07:21:02;15.57;;;7.43;;
21878;SDS011;27908;42.708;23.278;2023-04-25T07:23:27;15.23;;;7.47;;
21878;SDS011;27908;42.708;23.278;2023-04-25T07:25:53;15.13;;;7.97;;
21878;SDS011;27908;42.708;23.278;2023-04-25T07:28:18;15.18;;;7.57;;
21878;SDS011;27908;42.708;23.278;2023-04-25T07:30:44;18.20;;;7.80;;
21878;SDS011;27908;42.708;23.278;2023-04-25T07:33:09;14.80;;;7.27;;
21878;SDS011;27908;42.708;23.278;2023-04-25T07:35:35;13.60;;;7.32;;
21878;SDS011;27908;42.708;23.278;2023-04-25T07:38:01;14.40;;;6.77;;
21878;SDS011;27908;42.708;23.278;2023-04-25T07:40:27;15.13;;;7.25;;
21878;SDS011;27908;42.708;23.278;2023-04-25T07:42:52;13.33;;;6.47;;
21878;SDS011;27908;42.708;23.278;2023-04-25T07:45:18;13.70;;;6.67;;
21878;SDS011;27908;42.708;23.278;2023-04-25T07:47:43;15.70;;;7.30;;
21878;SDS011;27908;42.708;23.278;2023-04-25T07:50:09;16.40;;;7.03;;
21878;SDS011;27908;42.708;23.278;2023-04-25T07:52:35;16.20;;;7.40;;
21878;SDS011;27908;42.708;23.278;2023-04-25T07:55:01;16.60;;;7.28;;
21878;SDS011;27908;42.708;23.278;2023-04-25T07:57:26;13.90;;;6.63;;
21878;SDS011;27908;42.708;23.278;2023-04-25T07:59:52;17.63;;;7.20;;
21878;SDS011;27908;42.708;23.278;2023-04-25T08:02:36;16.58;;;6.65;;
21878;SDS011;27908;42.708;23.278;2023-04-25T08:05:02;15.70;;;7.30;;
21878;SDS011;27908;42.708;23.278;2023-04-25T08:07:28;15.37;;;7.40;;
21878;SDS011;27908;42.708;23.278;2023-04-25T08:09:53;13.80;;;6.60;;
21878;SDS011;27908;42.708;23.278;2023-04-25T08:12:20;12.40;;;6.77;;
21878;SDS011;27908;42.708;23.278;2023-04-25T08:14:45;14.23;;;6.40;;
21878;SDS011;27908;42.708;23.278;2023-04-25T08:17:11;13.23;;;6.23;;
21878;SDS011;27908;42.708;23.278;2023-04-25T08:19:36;15.52;;;6.88;;
21878;SDS011;27908;42.708;23.278;2023-04-25T08:22:02;13.97;;;6.20;;
21878;SDS011;27908;42.708;23.278;2023-04-25T08:24:27;13.63;;;5.90;;
21878;SDS011;27908;42.708;23.278;2023-04-25T08:26:53;13.13;;;4.67;;
21878;SDS011;27908;42.708;23.278;2023-04-25T08:29:19;11.07;;;5.30;;
21878;SDS011;27908;42.708;23.278;2023-04-25T08:31:44;14.73;;;5.90;;
21878;SDS011;27908;42.708;23.278;2023-04-25T08:34:10;11.93;;;6.25;;
21878;SDS011;27908;42.708;23.278;2023-04-25T08:36:36;16.05;;;7.35;;
21878;SDS011;27908;42.708;23.278;2023-04-25T08:39:01;12.20;;;6.67;;
21878;SDS011;27908;42.708;23.278;2023-04-25T08:41:27;10.80;;;5.07;;
21878;SDS011;27908;42.708;23.278;2023-04-25T08:43:53;10.83;;;4.40;;
21878;SDS011;27908;42.708;23.278;2023-04-25T08:46:30;7.88;;;3.58;;
21878;SDS011;27908;42.708;23.278;2023-04-25T08:49:11;6.60;;;2.75;;
21878;SDS011;27908;42.708;23.278;2023-04-25T08:51:40;6.75;;;2.53;;
21878;SDS011;27908;42.708;23.278;2023-04-25T08:54:12;7.43;;;3.28;;
21878;SDS011;27908;42.708;23.278;2023-04-25T08:56:39;9.87;;;4.30;;
21878;SDS011;27908;42.708;23.278;2023-04-25T08:59:08;12.13;;;4.60;;
21878;SDS011;27908;42.708;23.278;2023-04-25T09:01:35;13.75;;;5.05;;
21878;SDS011;27908;42.708;23.278;2023-04-25T09:04:01;13.10;;;5.25;;
21878;SDS011;27908;42.708;23.278;2023-04-25T09:06:27;9.93;;;4.93;;
21878;SDS011;27908;42.708;23.278;2023-04-25T09:08:53;12.15;;;4.72;;
21878;SDS011;27908;42.708;23.278;2023-04-25T09:11:19;9.63;;;4.40;;
21878;SDS011;27908;42.708;23.278;2023-04-25T09:13:44;9.13;;;4.00;;
21878;SDS011;27908;42.708;23.278;2023-04-25T09:16:10;9.57;;;4.63;;
21878;SDS011;27908;42.708;23.278;2023-04-25T09:18:37;10.18;;;4.82;;
21878;SDS011;27908;42.708;23.278;2023-04-25T09:21:12;7.67;;;3.33;;
21878;SDS011;27908;42.708;23.278;2023-04-25T09:23:41;8.98;;;3.38;;
21878;SDS011;27908;42.708;23.278;2023-04-25T09:26:10;21.65;;;8.27;;
21878;SDS011;27908;42.708;23.278;2023-04-25T09:28:38;22.90;;;10.27;;
21878;SDS011;27908;42.708;23.278;2023-04-25T09:31:04;9.47;;;3.77;;
21878;SDS011;27908;42.708;23.278;2023-04-25T09:33:30;8.47;;;2.97;;
21878;SDS011;27908;42.708;23.278;2023-04-25T09:36:09;5.68;;;2.17;;
21878;SDS011;27908;42.708;23.278;2023-04-25T09:38:45;7.28;;;1.90;;
21878;SDS011;27908;42.708;23.278;2023-04-25T09:41:11;5.57;;;1.77;;
21878;SDS011;27908;42.708;23.278;2023-04-25T09:43:37;5.93;;;2.20;;
21878;SDS011;27908;42.708;23.278;2023-04-25T09:46:13;6.57;;;2.95;;
21878;SDS011;27908;42.708;23.278;2023-04-25T09:48:38;8.98;;;2.90;;
21878;SDS011;27908;42.708;23.278;2023-04-25T09:51:08;6.07;;;2.50;;
21878;SDS011;27908;42.708;23.278;2023-04-25T09:53:44;6.95;;;3.17;;
21878;SDS011;27908;42.708;23.278;2023-04-25T09:56:16;7.75;;;2.90;;
21878;SDS011;27908;42.708;23.278;2023-04-25T09:58:41;6.60;;;2.77;;
21878;SDS011;27908;42.708;23.278;2023-04-25T10:01:08;6.90;;;2.40;;
21878;SDS011;27908;42.708;23.278;2023-04-25T10:03:36;6.75;;;2.03;;
21878;SDS011;27908;42.708;23.278;2023-04-25T10:06:08;7.90;;;2.50;;
21878;SDS011;27908;42.708;23.278;2023-04-25T10:08:37;7.35;;;2.45;;
21878;SDS011;27908;42.708;23.278;2023-04-25T10:11:04;5.60;;;1.95;;
21878;SDS011;27908;42.708;23.278;2023-04-25T10:13:31;6.03;;;2.13;;
21878;SDS011;27908;42.708;23.278;2023-04-25T10:15:58;6.43;;;2.38;;
21878;SDS011;27908;42.708;23.278;2023-04-25T10:18:24;5.65;;;2.10;;
21878;SDS011;27908;42.708;23.278;2023-04-25T10:20:52;8.07;;;2.00;;
21878;SDS011;27908;42.708;23.278;2023-04-25T10:23:22;4.25;;;1.23;;
21878;SDS011;27908;42.708;23.278;2023-04-25T10:25:49;4.97;;;1.30;;
21878;SDS011;27908;42.708;23.278;2023-04-25T10:28:16;4.18;;;1.15;;
21878;SDS011;27908;42.708;23.278;2023-04-25T10:31:01;5.38;;;1.10;;
21878;SDS011;27908;42.708;23.278;2023-04-25T10:33:37;6.22;;;1.50;;
21878;SDS011;27908;42.708;23.278;2023-04-25T10:36:14;6.22;;;1.35;;
21878;SDS011;27908;42.708;23.278;2023-04-25T10:38:44;6.53;;;1.40;;
21878;SDS011;27908;42.708;23.278;2023-04-25T10:41:12;6.45;;;1.70;;
21878;SDS011;27908;42.708;23.278;2023-04-25T10:43:42;6.43;;;1.50;;
21878;SDS011;27908;42.708;23.278;2023-04-25T10:46:13;4.35;;;1.27;;
21878;SDS011;27908;42.708;23.278;2023-04-25T10:48:38;7.43;;;1.75;;
21878;SDS011;27908;42.708;23.278;2023-04-25T10:51:11;6.37;;;1.37;;
21878;SDS011;27908;42.708;23.278;2023-04-25T10:53:40;5.47;;;1.40;;
21878;SDS011;27908;42.708;23.278;2023-04-25T10:59:09;4.05;;;1.20;;
21878;SDS011;27908;42.708;23.278;2023-04-25T11:01:37;3.78;;;1.10;;
21878;SDS011;27908;42.708;23.278;2023-04-25T11:07:03;4.15;;;1.10;;
21878;SDS011;27908;42.708;23.278;2023-04-25T11:09:29;5.37;;;1.30;;
21878;SDS011;27908;42.708;23.278;2023-04-25T11:11:55;4.32;;;1.30;;
21878;SDS011;27908;42.708;23.278;2023-04-25T11:14:22;3.83;;;1.00;;
21878;SDS011;27908;42.708;23.278;2023-04-25T11:16:52;4.35;;;1.20;;
21878;SDS011;27908;42.708;23.278;2023-04-25T11:19:24;3.77;;;1.00;;
21878;SDS011;27908;42.708;23.278;2023-04-25T11:21:55;3.78;;;1.00;;
21878;SDS011;27908;42.708;23.278;2023-04-25T11:26:53;5.57;;;1.20;;
21878;SDS011;27908;42.708;23.278;2023-04-25T11:29:21;6.07;;;1.20;;
21878;SDS011;27908;42.708;23.278;2023-04-25T11:31:47;5.68;;;1.38;;
21878;SDS011;27908;42.708;23.278;2023-04-25T11:34:16;10.43;;;3.90;;
21878;SDS011;27908;42.708;23.278;2023-04-25T11:36:43;4.68;;;1.30;;
21878;SDS011;27908;42.708;23.278;2023-04-25T11:39:10;3.50;;;1.10;;
21878;SDS011;27908;42.708;23.278;2023-04-25T11:41:37;4.03;;;1.10;;
21878;SDS011;27908;42.708;23.278;2023-04-25T11:44:03;3.65;;;0.98;;
21878;SDS011;27908;42.708;23.278;2023-04-25T11:46:29;4.60;;;1.15;;
21878;SDS011;27908;42.708;23.278;2023-04-25T11:48:55;4.67;;;1.30;;
21878;SDS011;27908;42.708;23.278;2023-04-25T11:51:21;4.15;;;1.30;;
21878;SDS011;27908;42.708;23.278;2023-04-25T11:53:46;4.57;;;1.33;;
21878;SDS011;27908;42.708;23.278;2023-04-25T11:56:11;4.43;;;1.20;;
21878;SDS011;27908;42.708;23.278;2023-04-25T12:01:25;4.77;;;1.10;;
21878;SDS011;27908;42.708;23.278;2023-04-25T12:03:51;7.13;;;1.23;;
21878;SDS011;27908;42.708;23.278;2023-04-25T12:06:17;6.63;;;1.50;;
21878;SDS011;27908;42.708;23.278;2023-04-25T12:08:58;5.27;;;1.50;;
21878;SDS011;27908;42.708;23.278;2023-04-25T12:11:25;6.18;;;1.88;;
21878;SDS011;27908;42.708;23.278;2023-04-25T12:13:53;5.47;;;1.50;;
21878;SDS011;27908;42.708;23.278;2023-04-25T12:16:19;5.32;;;1.40;;
21878;SDS011;27908;42.708;23.278;2023-04-25T12:18:44;5.13;;;1.43;;
21878;SDS011;27908;42.708;23.278;2023-04-25T12:21:10;5.03;;;1.30;;
21878;SDS011;27908;42.708;23.278;2023-04-25T12:23:37;6.35;;;1.30;;
21878;SDS011;27908;42.708;23.278;2023-04-25T12:26:04;4.60;;;1.10;;
21878;SDS011;27908;42.708;23.278;2023-04-25T12:28:31;6.95;;;1.30;;
21878;SDS011;27908;42.708;23.278;2023-04-25T12:31:04;5.47;;;1.70;;
21878;SDS011;27908;42.708;23.278;2023-04-25T12:33:31;5.82;;;1.42;;
21878;SDS011;27908;42.708;23.278;2023-04-25T12:35:58;6.65;;;1.20;;
21878;SDS011;27908;42.708;23.278;2023-04-25T12:38:28;5.23;;;1.40;;
21878;SDS011;27908;42.708;23.278;2023-04-25T12:40:55;4.57;;;1.17;;
21878;SDS011;27908;42.708;23.278;2023-04-25T12:43:22;5.22;;;1.40;;
21878;SDS011;27908;42.708;23.278;2023-04-25T12:45:48;4.20;;;1.33;;
21878;SDS011;27908;42.708;23.278;2023-04-25T12:48:15;6.63;;;1.50;;
21878;SDS011;27908;42.708;23.278;2023-04-25T12:50:40;6.63;;;1.30;;
21878;SDS011;27908;42.708;23.278;2023-04-25T12:53:06;4.20;;;1.23;;
21878;SDS011;27908;42.708;23.278;2023-04-25T12:55:31;4.03;;;1.30;;
21878;SDS011;27908;42.708;23.278;2023-04-25T12:57:57;5.50;;;1.42;;
21878;SDS011;27908;42.708;23.278;2023-04-25T13:00:22;5.93;;;1.47;;
21878;SDS011;27908;42.708;23.278;2023-04-25T13:02:48;5.50;;;1.70;;
21878;SDS011;27908;42.708;23.278;2023-04-25T13:05:13;5.00;;;1.50;;
21878;SDS011;27908;42.708;23.278;2023-04-25T13:07:38;6.00;;;1.70;;
21878;SDS011;27908;42.708;23.278;2023-04-25T13:10:04;5.47;;;1.50;;
21878;SDS011;27908;42.708;23.278;2023-04-25T13:12:30;6.88;;;1.70;;
21878;SDS011;27908;42.708;23.278;2023-04-25T13:14:56;5.87;;;1.60;;
21878;SDS011;27908;42.708;23.278;2023-04-25T13:17:22;5.35;;;1.70;;
21878;SDS011;27908;42.708;23.278;2023-04-25T13:19:47;5.53;;;1.80;;
21878;SDS011;27908;42.708;23.278;2023-04-25T13:22:13;4.80;;;1.67;;
21878;SDS011;27908;42.708;23.278;2023-04-25T13:24:40;8.50;;;2.10;;
21878;SDS011;27908;42.708;23.278;2023-04-25T13:27:05;6.43;;;2.00;;
21878;SDS011;27908;42.708;23.278;2023-04-25T13:29:31;8.05;;;2.10;;
21878;SDS011;27908;42.708;23.278;2023-04-25T13:31:59;6.47;;;2.10;;
21878;SDS011;27908;42.708;23.278;2023-04-25T13:34:24;6.00;;;1.90;;
21878;SDS011;27908;42.708;23.278;2023-04-25T13:36:50;6.50;;;2.00;;
21878;SDS011;27908;42.708;23.278;2023-04-25T13:39:15;7.87;;;2.33;;
21878;SDS011;27908;42.708;23.278;2023-04-25T13:41:41;7.07;;;2.30;;
21878;SDS011;27908;42.708;23.278;2023-04-25T13:44:06;6.30;;;2.42;;
21878;SDS011;27908;42.708;23.278;2023-04-25T13:46:31;9.33;;;2.40;;
21878;SDS011;27908;42.708;23.278;2023-04-25T13:48:57;7.63;;;2.40;;
21878;SDS011;27908;42.708;23.278;2023-04-25T13:51:22;7.27;;;2.30;;
21878;SDS011;27908;42.708;23.278;2023-04-25T13:53:47;6.97;;;2.57;;
21878;SDS011;27908;42.708;23.278;2023-04-25T13:56:13;7.93;;;3.47;;
21878;SDS011;27908;42.708;23.278;2023-04-25T13:58:38;11.93;;;4.97;;
21878;SDS011;27908;42.708;23.278;2023-04-25T14:01:04;13.20;;;6.37;;
21878;SDS011;27908;42.708;23.278;2023-04-25T14:03:30;9.68;;;3.72;;
21878;SDS011;27908;42.708;23.278;2023-04-25T14:05:56;8.50;;;3.80;;
21878;SDS011;27908;42.708;23.278;2023-04-25T14:08:21;7.53;;;3.20;;
21878;SDS011;27908;42.708;23.278;2023-04-25T14:10:47;8.20;;;3.17;;
21878;SDS011;27908;42.708;23.278;2023-04-25T14:13:12;7.53;;;2.77;;
21878;SDS011;27908;42.708;23.278;2023-04-25T14:15:37;7.87;;;2.80;;
21878;SDS011;27908;42.708;23.278;2023-04-25T14:18:03;9.67;;;3.23;;
21878;SDS011;27908;42.708;23.278;2023-04-25T14:20:29;7.60;;;2.80;;
21878;SDS011;27908;42.708;23.278;2023-04-25T14:22:54;7.85;;;3.05;;
21878;SDS011;27908;42.708;23.278;2023-04-25T14:25:21;6.25;;;2.22;;
21878;SDS011;27908;42.708;23.278;2023-04-25T14:27:47;6.37;;;2.00;;
21878;SDS011;27908;42.708;23.278;2023-04-25T14:30:15;7.00;;;2.38;;
21878;SDS011;27908;42.708;23.278;2023-04-25T14:32:41;7.57;;;2.47;;